createdAt,value
2023-02-09T00:01:31.415Z,19.47
2023-02-09T00:03:59.115Z,14.07
2023-02-09T00:06:26.353Z,8.40
2023-02-09T00:08:53.281Z,11.37
2023-02-09T00:11:45.014Z,10.47
2023-02-09T00:14:12.539Z,10.80
2023-02-09T00:16:39.397Z,13.33
2023-02-09T00:19:06.448Z,9.47
2023-02-09T00:21:33.525Z,12.87
2023-02-09T00:24:00.269Z,12.10
2023-02-09T00:26:26.804Z,13.57
2023-02-09T00:28:53.654Z,10.50
2023-02-09T00:31:20.296Z,14.60
2023-02-09T00:33:47.090Z,10.03
2023-02-09T00:36:14.676Z,13.03
2023-02-09T00:38:42.518Z,13.67
2023-02-09T00:41:09.455Z,11.20
2023-02-09T00:43:37.650Z,13.67
2023-02-09T00:46:04.341Z,10.03
2023-02-09T00:48:31.266Z,14.40
2023-02-09T00:50:58.021Z,14.53
2023-02-09T00:53:25.041Z,14.33
2023-02-09T00:55:52.082Z,12.93
2023-02-09T00:58:19.802Z,18.17
2023-02-09T01:00:46.537Z,13.03
2023-02-09T01:03:13.258Z,16.10
2023-02-09T01:05:41.370Z,16.13
2023-02-09T01:08:07.892Z,13.43
2023-02-09T01:10:34.545Z,17.80
2023-02-09T01:13:01.014Z,13.83
2023-02-09T01:15:29.274Z,15.40
2023-02-09T01:17:55.804Z,12.30
2023-02-09T01:20:22.413Z,12.20
2023-02-09T01:22:48.835Z,14.00
2023-02-09T01:25:15.330Z,19.70
2023-02-09T01:27:42.317Z,10.90
2023-02-09T01:30:09.691Z,12.63
2023-02-09T01:32:37.168Z,12.50
2023-02-09T01:35:04.434Z,17.60
2023-02-09T01:37:33.713Z,15.93
2023-02-09T01:40:00.189Z,16.43
2023-02-09T01:42:27.012Z,14.33
2023-02-09T01:45:08.655Z,15.87
2023-02-09T01:47:43.516Z,13.83
2023-02-09T01:50:10.126Z,14.67
2023-02-09T01:52:36.592Z,13.03
2023-02-09T01:55:07.319Z,11.30
2023-02-09T01:57:43.997Z,17.10
2023-02-09T02:00:16.534Z,12.27
2023-02-09T02:02:52.680Z,13.70
2023-02-09T02:05:20.697Z,13.00
2023-02-09T02:07:56.458Z,11.63
2023-02-09T02:10:24.268Z,12.27
2023-02-09T02:12:53.645Z,14.10
2023-02-09T02:15:22.000Z,11.03
2023-02-09T02:18:07.973Z,16.70
2023-02-09T02:21:12.271Z,13.33
2023-02-09T02:23:44.834Z,12.10
2023-02-09T02:26:35.304Z,11.73
2023-02-09T02:29:16.006Z,12.20
2023-02-09T02:31:54.139Z,18.30
2023-02-09T02:35:03.205Z,10.83
2023-02-09T02:37:56.004Z,12.20
2023-02-09T02:40:48.216Z,9.50
2023-02-09T02:43:33.503Z,13.80
2023-02-09T02:46:10.959Z,15.47
2023-02-09T02:48:48.066Z,15.43
2023-02-09T02:51:27.720Z,11.07
2023-02-09T02:53:57.441Z,15.13
2023-02-09T02:56:35.980Z,13.13
2023-02-09T02:59:06.460Z,14.70
2023-02-09T03:01:40.293Z,12.90
2023-02-09T03:04:08.505Z,20.57
2023-02-09T03:06:37.821Z,9.70
2023-02-09T03:09:05.698Z,10.93
2023-02-09T03:11:39.616Z,10.60
2023-02-09T03:14:09.023Z,9.93
2023-02-09T03:17:04.908Z,12.87
2023-02-09T03:19:57.924Z,8.90
2023-02-09T03:22:35.452Z,14.67
2023-02-09T03:25:05.914Z,19.00
2023-02-09T03:27:34.988Z,12.33
2023-02-09T03:30:04.307Z,15.23
2023-02-09T03:32:32.091Z,12.43
2023-02-09T03:34:59.115Z,15.23
2023-02-09T03:37:25.968Z,13.20
2023-02-09T03:39:52.569Z,12.23
2023-02-09T03:42:19.175Z,18.90
2023-02-09T03:44:45.618Z,12.43
2023-02-09T03:47:12.312Z,12.50
2023-02-09T03:49:40.999Z,12.90
2023-02-09T03:52:12.696Z,12.03
2023-02-09T03:54:39.679Z,14.57
2023-02-09T03:57:06.819Z,15.67
2023-02-09T03:59:35.471Z,11.20
2023-02-09T04:02:03.481Z,9.50
2023-02-09T04:04:30.598Z,14.57
2023-02-09T04:06:57.446Z,14.60
2023-02-09T04:09:25.026Z,12.87
2023-02-09T04:11:51.509Z,22.47
2023-02-09T04:14:18.412Z,13.83
2023-02-09T04:16:45.211Z,14.77
2023-02-09T04:19:12.314Z,17.13
2023-02-09T04:21:39.343Z,12.60
2023-02-09T04:24:06.810Z,14.37
2023-02-09T04:26:33.964Z,13.20
2023-02-09T04:29:00.618Z,22.23
2023-02-09T04:31:27.260Z,21.20
2023-02-09T04:33:53.775Z,21.67
2023-02-09T04:36:23.178Z,21.27
2023-02-09T04:38:50.149Z,18.90
2023-02-09T04:41:16.599Z,15.83
2023-02-09T04:43:43.113Z,17.77
2023-02-09T04:46:17.546Z,21.50
2023-02-09T04:48:45.368Z,22.13
2023-02-09T04:51:11.898Z,22.90
2023-02-09T04:53:38.317Z,20.23
2023-02-09T04:56:05.270Z,18.13
2023-02-09T04:58:50.340Z,22.30
2023-02-09T05:01:26.165Z,21.97
2023-02-09T05:03:53.425Z,25.90
2023-02-09T05:06:19.944Z,19.20
2023-02-09T05:08:46.920Z,28.70
2023-02-09T05:11:13.348Z,22.07
2023-02-09T05:13:40.068Z,21.00
2023-02-09T05:16:08.234Z,25.90
2023-02-09T05:18:35.332Z,22.03
2023-02-09T05:21:01.922Z,19.83
2023-02-09T05:23:28.520Z,30.70
2023-02-09T05:25:56.458Z,21.70
2023-02-09T05:28:24.821Z,25.20
2023-02-09T05:30:53.782Z,21.97
2023-02-09T05:33:25.159Z,29.60
2023-02-09T05:35:53.260Z,27.30
2023-02-09T05:38:19.985Z,31.87
2023-02-09T05:40:46.850Z,30.30
2023-02-09T05:43:14.703Z,25.80
2023-02-09T05:45:41.279Z,28.30
2023-02-09T05:48:07.863Z,24.13
2023-02-09T05:50:35.736Z,23.20
2023-02-09T05:53:07.084Z,27.43
2023-02-09T05:55:33.500Z,24.60
2023-02-09T05:58:00.027Z,27.33
2023-02-09T06:00:29.588Z,28.93
2023-02-09T06:02:56.303Z,27.77
2023-02-09T06:05:22.857Z,24.90
2023-02-09T06:07:49.566Z,27.13
2023-02-09T06:10:19.122Z,28.53
2023-02-09T06:12:45.559Z,28.83
2023-02-09T06:15:12.401Z,27.27
2023-02-09T06:17:38.846Z,30.27
2023-02-09T06:20:05.854Z,26.40
2023-02-09T06:22:32.290Z,28.07
2023-02-09T06:24:59.609Z,30.50
2023-02-09T06:27:26.009Z,27.40
2023-02-09T06:29:52.582Z,30.93
2023-02-09T06:32:19.071Z,28.10
2023-02-09T06:34:45.689Z,26.70
2023-02-09T06:37:12.112Z,31.60
2023-02-09T06:39:38.531Z,25.90
2023-02-09T06:42:05.128Z,35.00
2023-02-09T06:44:31.537Z,27.10
2023-02-09T06:46:58.056Z,24.40
2023-02-09T06:49:26.381Z,32.10
2023-02-09T06:51:53.040Z,27.13
2023-02-09T06:54:20.089Z,33.27
2023-02-09T06:56:46.742Z,28.40
2023-02-09T06:59:13.809Z,29.40
2023-02-09T07:01:40.472Z,32.83
2023-02-09T07:04:06.980Z,22.60
2023-02-09T07:06:33.437Z,37.83
2023-02-09T07:08:59.924Z,32.60
2023-02-09T07:11:26.398Z,29.53
2023-02-09T07:13:52.841Z,27.30
2023-02-09T07:16:19.339Z,29.70
2023-02-09T07:18:45.937Z,27.53
2023-02-09T07:21:19.832Z,28.97
2023-02-09T07:23:47.752Z,30.33
2023-02-09T07:26:17.671Z,36.70
2023-02-09T07:28:44.655Z,28.77
2023-02-09T07:31:13.849Z,29.20
2023-02-09T07:33:40.497Z,19.50
2023-02-09T07:36:09.600Z,30.77
2023-02-09T07:38:37.370Z,28.00
2023-02-09T07:41:06.354Z,25.33
2023-02-09T07:43:33.400Z,33.87
2023-02-09T07:46:01.572Z,27.17
2023-02-09T07:48:28.611Z,29.17
2023-02-09T07:50:55.194Z,29.37
2023-02-09T07:53:21.774Z,27.43
2023-02-09T07:55:48.519Z,33.17
2023-02-09T07:58:18.125Z,30.60
2023-02-09T08:00:46.163Z,28.57
2023-02-09T08:03:14.697Z,25.23
2023-02-09T08:06:00.389Z,25.30
2023-02-09T08:08:27.128Z,16.90
2023-02-09T08:10:56.344Z,25.07
2023-02-09T08:13:23.863Z,28.00
2023-02-09T08:15:55.521Z,24.73
2023-02-09T08:18:32.368Z,17.90
2023-02-09T08:20:59.168Z,23.87
2023-02-09T08:23:30.909Z,20.30
2023-02-09T08:26:00.002Z,17.43
2023-02-09T08:28:41.675Z,21.10
2023-02-09T08:31:14.721Z,20.07
2023-02-09T08:33:42.458Z,23.80
2023-02-09T08:36:10.413Z,18.63
2023-02-09T08:38:37.166Z,25.77
2023-02-09T08:41:05.792Z,17.73
2023-02-09T08:43:33.082Z,21.10
2023-02-09T08:46:08.924Z,25.63
2023-02-09T08:48:37.082Z,21.50
2023-02-09T08:51:04.597Z,21.87
2023-02-09T08:53:31.083Z,17.83
2023-02-09T08:55:57.632Z,24.27
2023-02-09T08:58:25.647Z,24.90
2023-02-09T09:00:59.859Z,18.27
2023-02-09T09:03:29.906Z,14.70
2023-02-09T09:06:05.117Z,18.70
2023-02-09T09:08:32.730Z,23.50
2023-02-09T09:10:59.552Z,21.33
2023-02-09T09:13:26.633Z,18.70
2023-02-09T09:15:55.247Z,22.70
2023-02-09T09:18:22.923Z,26.27
2023-02-09T09:20:49.412Z,18.93
2023-02-09T09:23:16.358Z,20.03
2023-02-09T09:25:43.035Z,54.97
2023-02-09T09:28:10.299Z,22.40
2023-02-09T09:30:37.158Z,18.67
2023-02-09T09:33:04.245Z,18.90
2023-02-09T09:35:31.206Z,18.73
2023-02-09T09:37:58.472Z,14.23
2023-02-09T09:40:27.914Z,13.03
2023-02-09T09:43:00.589Z,14.60
2023-02-09T09:45:29.652Z,19.40
2023-02-09T09:47:56.885Z,17.70
2023-02-09T09:50:27.426Z,15.20
2023-02-09T09:53:04.945Z,15.67
2023-02-09T09:55:32.484Z,15.40
2023-02-09T09:58:02.942Z,17.47
2023-02-09T10:00:39.730Z,18.37
2023-02-09T10:03:17.850Z,34.23
2023-02-09T10:05:47.303Z,16.73
2023-02-09T10:08:29.507Z,17.43
2023-02-09T10:11:17.146Z,15.83
2023-02-09T10:13:49.541Z,16.33
2023-02-09T10:16:18.618Z,17.27
2023-02-09T10:18:49.464Z,17.20
2023-02-09T10:21:17.195Z,15.70
2023-02-09T10:23:50.148Z,13.27
2023-02-09T10:26:23.190Z,16.63
2023-02-09T10:29:12.716Z,10.60
2023-02-09T10:31:43.450Z,12.90
2023-02-09T10:34:16.475Z,20.13
2023-02-09T10:36:45.883Z,14.80
2023-02-09T10:39:12.249Z,12.03
2023-02-09T10:41:41.964Z,15.23
2023-02-09T10:44:23.681Z,13.63
2023-02-09T10:46:50.608Z,10.27
2023-02-09T10:49:35.191Z,10.63
2023-02-09T10:52:20.559Z,15.00
2023-02-09T10:54:56.831Z,18.17
2023-02-09T10:57:28.748Z,12.47
2023-02-09T10:59:58.210Z,14.47
2023-02-09T11:02:29.146Z,11.87
2023-02-09T11:04:55.594Z,10.50
2023-02-09T11:07:25.123Z,14.83
2023-02-09T11:09:52.501Z,13.50
2023-02-09T11:12:22.632Z,24.27
2023-02-09T11:14:49.348Z,15.40
2023-02-09T11:17:36.326Z,10.80
2023-02-09T11:20:13.591Z,10.43
2023-02-09T11:22:45.931Z,12.10
2023-02-09T11:25:33.030Z,13.50
2023-02-09T11:28:31.486Z,10.80
2023-02-09T11:31:25.833Z,12.00
2023-02-09T11:34:04.600Z,15.70
2023-02-09T11:36:57.360Z,11.40
2023-02-09T11:39:36.972Z,11.13
2023-02-09T11:42:34.658Z,13.27
2023-02-09T11:45:22.164Z,16.43
2023-02-09T11:48:02.477Z,10.70
2023-02-09T11:50:56.355Z,12.83
2023-02-09T11:53:45.629Z,12.53
2023-02-09T11:56:15.977Z,21.53
2023-02-09T11:58:56.963Z,16.03
2023-02-09T12:02:00.267Z,14.33
2023-02-09T12:04:59.082Z,11.40
2023-02-09T12:08:01.971Z,10.17
2023-02-09T12:10:37.259Z,13.67
2023-02-09T12:13:23.929Z,15.50
2023-02-09T12:15:54.355Z,12.43
2023-02-09T12:18:27.506Z,12.90
2023-02-09T12:20:56.182Z,15.90
2023-02-09T12:23:36.715Z,16.30
2023-02-09T12:26:12.242Z,16.60
2023-02-09T12:28:46.321Z,13.93
2023-02-09T12:31:19.408Z,16.80
2023-02-09T12:33:45.988Z,15.13
2023-02-09T12:36:21.284Z,28.67
2023-02-09T12:39:07.117Z,19.17
2023-02-09T12:41:33.549Z,14.53
2023-02-09T12:44:05.886Z,17.80
2023-02-09T12:46:32.338Z,19.67
2023-02-09T12:49:01.857Z,14.80
2023-02-09T12:51:52.933Z,20.60
2023-02-09T12:54:51.815Z,17.23
2023-02-09T12:57:18.844Z,17.83
2023-02-09T12:59:51.244Z,16.90
2023-02-09T13:02:25.293Z,18.80
2023-02-09T13:05:09.724Z,18.13
2023-02-09T13:07:44.864Z,15.70
2023-02-09T13:10:42.438Z,10.80
2023-02-09T13:13:12.081Z,14.67
2023-02-09T13:15:47.887Z,14.03
2023-02-09T13:18:33.725Z,14.70
2023-02-09T13:21:18.869Z,11.70
2023-02-09T13:24:04.246Z,18.03
2023-02-09T13:26:34.122Z,16.90
2023-02-09T13:29:21.462Z,14.37
2023-02-09T13:31:54.658Z,18.47
2023-02-09T13:34:40.034Z,20.00
2023-02-09T13:37:17.778Z,13.73
2023-02-09T13:39:44.461Z,14.93
2023-02-09T13:42:23.635Z,15.53
2023-02-09T13:44:52.585Z,12.20
2023-02-09T13:47:19.810Z,11.00
2023-02-09T13:50:01.079Z,23.60
2023-02-09T13:52:38.842Z,20.53
2023-02-09T13:55:21.346Z,21.20
2023-02-09T13:58:07.201Z,19.90
2023-02-09T14:00:43.744Z,15.97
2023-02-09T14:03:21.003Z,15.73
2023-02-09T14:06:17.978Z,15.90
2023-02-09T14:08:46.279Z,20.17
2023-02-09T14:11:18.765Z,13.97
2023-02-09T14:13:52.200Z,14.83
2023-02-09T14:16:20.955Z,14.70
2023-02-09T14:18:54.808Z,25.47
2023-02-09T14:21:31.598Z,16.40
2023-02-09T14:24:00.945Z,20.90
2023-02-09T14:26:30.196Z,16.13
2023-02-09T14:29:23.807Z,15.90
2023-02-09T14:31:53.389Z,14.63
2023-02-09T14:34:28.118Z,16.80
2023-02-09T14:37:00.235Z,17.47
2023-02-09T14:39:30.850Z,17.23
2023-02-09T14:42:09.032Z,17.07
2023-02-09T14:44:45.581Z,22.23
2023-02-09T14:47:50.972Z,18.47
2023-02-09T14:50:20.594Z,19.80
2023-02-09T14:52:54.325Z,15.37
2023-02-09T14:55:26.369Z,16.87
2023-02-09T14:57:53.125Z,18.90
2023-02-09T15:00:30.125Z,20.43
2023-02-09T15:02:58.177Z,18.17
2023-02-09T15:05:26.622Z,21.83
2023-02-09T15:07:59.795Z,18.67
2023-02-09T15:10:31.991Z,17.43
2023-02-09T15:12:59.527Z,15.07
2023-02-09T15:15:26.583Z,17.27
2023-02-09T15:17:55.172Z,19.60
2023-02-09T15:20:26.058Z,16.77
2023-02-09T15:22:53.976Z,17.10
2023-02-09T15:25:21.156Z,19.00
2023-02-09T15:27:52.908Z,17.50
2023-02-09T15:30:26.435Z,18.00
2023-02-09T15:32:53.428Z,20.20
2023-02-09T15:35:22.686Z,17.93
2023-02-09T15:37:53.230Z,17.27
2023-02-09T15:40:49.374Z,18.83
2023-02-09T15:43:40.310Z,19.07
2023-02-09T15:46:26.835Z,22.70
2023-02-09T15:48:53.404Z,19.03
2023-02-09T15:51:21.969Z,19.10
2023-02-09T15:53:48.866Z,17.07
2023-02-09T15:56:16.008Z,17.70
2023-02-09T15:58:45.788Z,19.27
2023-02-09T16:01:14.526Z,19.50
2023-02-09T16:03:41.068Z,20.40
2023-02-09T16:06:14.827Z,21.57
2023-02-09T16:08:43.140Z,21.57
2023-02-09T16:11:32.927Z,21.33
2023-02-09T16:13:59.956Z,19.53
2023-02-09T16:16:27.803Z,18.73
2023-02-09T16:18:55.016Z,14.97
2023-02-09T16:21:31.621Z,16.93
2023-02-09T16:24:03.715Z,20.60
2023-02-09T16:26:32.307Z,17.70
2023-02-09T16:28:59.046Z,21.70
2023-02-09T16:31:25.605Z,20.00
2023-02-09T16:33:52.297Z,21.80
2023-02-09T16:36:21.512Z,25.30
2023-02-09T16:38:48.260Z,20.07
2023-02-09T16:41:37.479Z,22.13
2023-02-09T16:44:18.966Z,35.07
2023-02-09T16:46:48.091Z,21.17
2023-02-09T16:49:29.775Z,20.00
2023-02-09T16:52:00.526Z,23.70
2023-02-09T16:54:29.286Z,20.10
2023-02-09T16:56:56.557Z,28.40
2023-02-09T16:59:23.023Z,30.60
2023-02-09T17:01:49.576Z,20.97
2023-02-09T17:04:16.043Z,27.43
2023-02-09T17:06:42.496Z,25.70
2023-02-09T17:09:15.220Z,26.93
2023-02-09T17:11:42.984Z,25.70
2023-02-09T17:14:09.643Z,23.33
2023-02-09T17:16:39.464Z,24.30
2023-02-09T17:19:15.078Z,24.53
2023-02-09T17:21:42.238Z,36.10
2023-02-09T17:24:16.542Z,36.20
2023-02-09T17:26:43.869Z,31.13
2023-02-09T17:29:11.392Z,24.93
2023-02-09T17:31:52.452Z,32.30
2023-02-09T17:34:20.675Z,52.13
2023-02-09T17:36:47.358Z,36.33
2023-02-09T17:39:14.004Z,41.67
2023-02-09T17:41:46.350Z,41.20
2023-02-09T17:44:28.980Z,35.13
2023-02-09T17:47:03.202Z,33.23
2023-02-09T17:49:29.708Z,29.20
2023-02-09T17:51:56.178Z,35.80
2023-02-09T17:54:22.592Z,31.47
2023-02-09T17:56:49.114Z,32.97
2023-02-09T17:59:19.461Z,30.73
2023-02-09T18:01:49.451Z,27.33
2023-02-09T18:04:23.236Z,34.13
2023-02-09T18:06:49.851Z,30.63
2023-02-09T18:09:16.646Z,29.57
2023-02-09T18:11:52.249Z,33.10
2023-02-09T18:14:20.620Z,33.00
2023-02-09T18:16:47.995Z,32.00
2023-02-09T18:19:16.020Z,27.47
2023-02-09T18:21:55.134Z,32.20
2023-02-09T18:24:23.012Z,32.07
2023-02-09T18:26:52.381Z,38.67
2023-02-09T18:29:22.732Z,27.03
2023-02-09T18:31:50.433Z,28.70
2023-02-09T18:34:16.978Z,44.40
2023-02-09T18:36:43.503Z,32.90
2023-02-09T18:39:10.007Z,32.63
2023-02-09T18:41:36.424Z,38.60
2023-02-09T18:44:02.886Z,41.67
2023-02-09T18:46:29.356Z,38.60
2023-02-09T18:48:56.151Z,38.53
2023-02-09T18:51:22.734Z,41.40
2023-02-09T18:53:50.179Z,39.30
2023-02-09T18:56:20.834Z,34.77
2023-02-09T18:58:49.762Z,35.83
2023-02-09T19:01:18.690Z,43.23
2023-02-09T19:03:45.161Z,34.37
2023-02-09T19:06:11.863Z,40.37
2023-02-09T19:08:39.573Z,34.13
2023-02-09T19:11:06.910Z,34.00
2023-02-09T19:13:33.988Z,34.20
2023-02-09T19:16:01.103Z,46.23
2023-02-09T19:18:27.872Z,40.03
2023-02-09T19:20:57.778Z,59.53
2023-02-09T19:23:25.080Z,47.53
2023-02-09T19:26:01.797Z,50.63
2023-02-09T19:28:47.454Z,46.53
2023-02-09T19:31:23.380Z,44.53
2023-02-09T19:33:54.649Z,46.80
2023-02-09T19:36:22.724Z,55.03
2023-02-09T19:38:49.169Z,51.07
2023-02-09T19:41:15.653Z,53.23
2023-02-09T19:43:42.194Z,45.30
2023-02-09T19:46:13.185Z,53.80
2023-02-09T19:48:40.418Z,44.13
2023-02-09T19:51:07.735Z,47.33
2023-02-09T19:53:34.442Z,58.93
2023-02-09T19:56:00.915Z,53.57
2023-02-09T19:58:27.368Z,48.40
2023-02-09T20:00:55.414Z,58.97
2023-02-09T20:03:22.885Z,60.53
2023-02-09T20:05:50.800Z,49.23
2023-02-09T20:08:19.591Z,47.47
2023-02-09T20:10:46.542Z,64.37
2023-02-09T20:13:13.934Z,63.07
2023-02-09T20:15:42.187Z,63.27
2023-02-09T20:18:09.058Z,48.40
2023-02-09T20:20:35.884Z,50.20
2023-02-09T20:23:02.295Z,50.80
2023-02-09T20:25:28.957Z,54.93
2023-02-09T20:27:55.708Z,54.10
2023-02-09T20:30:22.354Z,47.93
2023-02-09T20:32:49.166Z,63.73
2023-02-09T20:35:15.675Z,57.97
2023-02-09T20:37:42.399Z,53.43
2023-02-09T20:40:11.341Z,56.77
2023-02-09T20:42:57.245Z,70.90
2023-02-09T20:45:42.973Z,59.23
2023-02-09T20:48:12.221Z,54.67
2023-02-09T20:50:39.750Z,56.30
2023-02-09T20:53:06.657Z,49.80
2023-02-09T20:55:35.188Z,54.53
2023-02-09T20:58:02.255Z,53.33
2023-02-09T21:00:29.322Z,57.63
2023-02-09T21:02:56.186Z,54.10
2023-02-09T21:05:23.227Z,48.87
2023-02-09T21:07:52.253Z,56.00
2023-02-09T21:10:19.344Z,56.63
2023-02-09T21:12:47.211Z,60.60
2023-02-09T21:15:14.512Z,61.97
2023-02-09T21:17:47.505Z,68.03
2023-02-09T21:20:16.553Z,66.30
2023-02-09T21:22:43.774Z,63.03
2023-02-09T21:25:11.904Z,72.70
2023-02-09T21:27:41.125Z,62.73
2023-02-09T21:30:10.555Z,62.13
2023-02-09T21:32:38.899Z,82.73
2023-02-09T21:35:10.447Z,67.10
2023-02-09T21:37:39.182Z,76.83
2023-02-09T21:40:07.161Z,76.97
2023-02-09T21:42:35.692Z,84.50
2023-02-09T21:45:03.434Z,80.57
2023-02-09T21:47:36.028Z,66.67
2023-02-09T21:50:06.669Z,66.87
2023-02-09T21:52:37.020Z,70.20
2023-02-09T21:55:04.669Z,72.70
2023-02-09T21:57:31.091Z,71.10
2023-02-09T21:59:58.951Z,68.40
2023-02-09T22:02:27.318Z,70.77
2023-02-09T22:04:56.352Z,74.47
2023-02-09T22:07:22.972Z,68.53
2023-02-09T22:09:49.465Z,71.90
2023-02-09T22:12:15.922Z,91.47
2023-02-09T22:14:42.352Z,68.27
2023-02-09T22:17:08.794Z,72.17
2023-02-09T22:19:35.648Z,78.07
2023-02-09T22:22:02.142Z,68.50
2023-02-09T22:24:30.005Z,65.83
2023-02-09T22:26:56.473Z,60.37
2023-02-09T22:29:23.021Z,78.10
2023-02-09T22:31:49.462Z,84.13
2023-02-09T22:34:15.961Z,70.10
2023-02-09T22:36:42.412Z,71.13
2023-02-09T22:39:09.284Z,61.90
2023-02-09T22:41:36.116Z,76.27
2023-02-09T22:44:08.084Z,57.73
2023-02-09T22:46:38.118Z,56.57
2023-02-09T22:49:08.163Z,50.00
2023-02-09T22:51:38.949Z,50.37
2023-02-09T22:54:09.457Z,65.43
2023-02-09T22:56:35.964Z,51.30
2023-02-09T22:59:03.588Z,52.90
2023-02-09T23:01:30.549Z,51.60
2023-02-09T23:03:57.855Z,60.33
2023-02-09T23:06:29.707Z,65.10
2023-02-09T23:08:58.953Z,59.77
2023-02-09T23:11:30.025Z,51.20
2023-02-09T23:14:09.708Z,54.03
2023-02-09T23:16:38.073Z,47.17
2023-02-09T23:19:07.846Z,39.07
2023-02-09T23:21:37.702Z,36.57
2023-02-09T23:24:05.126Z,38.40
2023-02-09T23:26:31.758Z,36.97
2023-02-09T23:29:03.426Z,43.70
2023-02-09T23:31:30.564Z,31.93
2023-02-09T23:33:57.714Z,43.23
2023-02-09T23:36:49.782Z,37.23
2023-02-09T23:39:19.313Z,38.60
2023-02-09T23:41:45.922Z,33.97
2023-02-09T23:44:13.121Z,35.70
2023-02-09T23:46:40.775Z,34.50
2023-02-09T23:49:07.337Z,29.70
2023-02-09T23:51:35.563Z,31.27
2023-02-09T23:54:05.109Z,35.97
2023-02-09T23:56:36.746Z,31.70
2023-02-09T23:59:09.302Z,33.90
